Time;durP1;ratioP1;P1;durP2;ratioP2;P2;SDS_P1;SDS_P2;PMS_P1;PMS_P2;Temp;Humidity;BMP_temperature;BMP_pressure;BME280_temperature;BME280_humidity;BME280_pressure;Samples;Min_cycle;Max_cycle;Signal;HPM_P1;HPM_P2
2023/12/15 00:01:16;;;;;;;21.87;10.85;;;;;;;0.16;100.00;100733.25;1660090;85;25484;-63
2023/12/15 00:03:44;;;;;;;18.25;10.03;;;;;;;0.11;100.00;100741.64;1666845;84;26039;-63
2023/12/15 00:06:14;;;;;;;18.98;10.72;;;;;;;0.13;100.00;100747.53;1665675;85;26004;-64
2023/12/15 00:08:42;;;;;;;18.95;10.30;;;;;;;0.11;100.00;100750.42;1665602;85;25652;-62
2023/12/15 00:11:09;;;;;;;20.45;10.55;;;;;;;0.11;100.00;100752.28;1665027;84;25749;-62
2023/12/15 00:13:37;;;;;;;17.95;10.90;;;;;;;0.11;100.00;100757.59;1641858;86;25429;-63
2023/12/15 00:16:07;;;;;;;21.87;10.65;;;;;;;0.10;100.00;100761.28;1636121;85;28372;-62
2023/12/15 00:18:33;;;;;;;18.62;9.88;;;;;;;0.09;100.00;100768.99;1645053;85;25946;-62
2023/12/15 00:21:00;;;;;;;17.60;9.78;;;;;;;0.07;100.00;100765.23;1666211;84;25469;-63
2023/12/15 00:23:28;;;;;;;16.30;9.18;;;;;;;0.08;100.00;100766.03;1667389;84;26627;-63
2023/12/15 00:25:55;;;;;;;22.65;13.25;;;;;;;0.06;100.00;100766.25;1663385;84;25809;-61
2023/12/15 00:28:23;;;;;;;38.65;21.68;;;;;;;0.08;100.00;100767.36;1659443;84;27992;-69
2023/12/15 00:30:50;;;;;;;18.30;10.73;;;;;;;0.11;100.00;100768.23;1655284;85;25846;-69
2023/12/15 00:33:16;;;;;;;22.02;13.68;;;;;;;0.12;100.00;100770.67;1646609;85;25801;-64
2023/12/15 00:35:46;;;;;;;16.87;9.95;;;;;;;0.18;100.00;100784.91;1649153;85;25882;-62
2023/12/15 00:38:13;;;;;;;16.25;9.00;;;;;;;0.18;100.00;100789.70;1649165;85;25488;-62
2023/12/15 00:40:43;;;;;;;15.95;9.15;;;;;;;0.16;100.00;100791.78;1620236;87;27705;-62
2023/12/15 00:43:09;;;;;;;14.50;8.68;;;;;;;0.16;100.00;100799.77;1631120;87;25956;-61
2023/12/15 00:45:41;;;;;;;15.10;8.93;;;;;;;0.16;100.00;100800.30;1628801;87;25429;-62
2023/12/15 00:48:06;;;;;;;16.85;9.43;;;;;;;0.15;100.00;100809.30;1613211;87;25957;-63
2023/12/15 00:50:33;;;;;;;17.07;9.15;;;;;;;0.15;100.00;100811.96;1604700;87;26663;-62
2023/12/15 00:52:59;;;;;;;16.73;9.30;;;;;;;0.16;100.00;100816.25;1603315;88;28025;-64
2023/12/15 00:55:26;;;;;;;13.90;8.50;;;;;;;0.14;100.00;100819.67;1594393;88;25509;-62
2023/12/15 00:57:53;;;;;;;13.60;7.67;;;;;;;0.15;100.00;100830.58;1602335;88;26115;-63
2023/12/15 01:00:21;;;;;;;13.22;7.75;;;;;;;0.13;100.00;100826.81;1595292;88;26588;-61
2023/12/15 01:02:48;;;;;;;12.35;7.40;;;;;;;0.12;100.00;100831.03;1614349;87;25426;-62
2023/12/15 01:05:16;;;;;;;11.93;7.37;;;;;;;0.11;100.00;100832.89;1622332;87;27392;-63
2023/12/15 01:07:45;;;;;;;13.90;7.33;;;;;;;0.08;100.00;100835.99;1612620;87;25891;-63
2023/12/15 01:10:13;;;;;;;10.90;7.22;;;;;;;0.10;100.00;100843.75;1631740;87;25452;-63
2023/12/15 01:12:40;;;;;;;12.33;7.03;;;;;;;0.09;100.00;100844.80;1619178;87;25823;-60
2023/12/15 01:15:07;;;;;;;13.03;7.90;;;;;;;0.08;100.00;100845.30;1631800;87;25777;-63
2023/12/15 01:17:34;;;;;;;11.75;6.62;;;;;;;0.07;100.00;100851.68;1614914;87;27466;-62
2023/12/15 01:20:02;;;;;;;14.35;7.00;;;;;;;0.07;100.00;100856.16;1619590;87;26033;-62
2023/12/15 01:22:29;;;;;;;13.58;7.85;;;;;;;0.05;100.00;100856.91;1620793;87;25831;-62
2023/12/15 01:24:56;;;;;;;11.57;7.10;;;;;;;0.06;100.00;100856.69;1630138;87;25964;-62
2023/12/15 01:27:25;;;;;;;14.60;7.85;;;;;;;0.06;100.00;100851.90;1627575;86;25493;-62
2023/12/15 01:29:51;;;;;;;13.85;7.90;;;;;;;0.05;100.00;100860.41;1612810;87;28379;-63
2023/12/15 01:32:18;;;;;;;14.68;8.55;;;;;;;0.05;100.00;100863.07;1625501;87;25969;-63
2023/12/15 01:34:44;;;;;;;11.08;7.22;;;;;;;0.05;100.00;100868.39;1613306;87;25431;-63
2023/12/15 01:37:13;;;;;;;13.30;7.55;;;;;;;0.05;100.00;100881.69;1613827;87;26693;-62
2023/12/15 01:39:40;;;;;;;12.23;7.05;;;;;;;0.03;100.00;100882.94;1623292;87;25907;-61
2023/12/15 01:42:06;;;;;;;14.53;8.28;;;;;;;0.02;100.00;100889.28;1619727;87;28033;-63
2023/12/15 01:44:33;;;;;;;11.63;7.17;;;;;;;0.01;100.00;100892.47;1613735;87;26091;-62
2023/12/15 01:47:02;;;;;;;10.88;7.30;;;;;;;-0.02;100.00;100884.43;1612425;87;25463;-62
2023/12/15 01:49:30;;;;;;;12.07;7.65;;;;;;;-0.03;100.00;100890.77;1626246;87;25978;-63
2023/12/15 01:51:56;;;;;;;14.18;7.62;;;;;;;-0.04;100.00;100898.97;1612648;87;25503;-62
2023/12/15 01:54:23;;;;;;;13.13;8.25;;;;;;;-0.06;100.00;100901.05;1620491;87;27336;-62
2023/12/15 01:56:52;;;;;;;12.25;8.08;;;;;;;-0.09;100.00;100896.97;1615324;87;25971;-61
2023/12/15 01:59:18;;;;;;;14.47;8.18;;;;;;;-0.12;100.00;100902.77;1614111;87;25471;-62
2023/12/15 02:01:47;;;;;;;13.78;8.40;;;;;;;-0.15;100.00;100905.03;1619135;87;25905;-61
2023/12/15 02:04:13;;;;;;;15.20;9.00;;;;;;;-0.17;100.00;100918.58;1631180;86;25907;-61
2023/12/15 02:06:40;;;;;;;15.20;9.13;;;;;;;-0.21;100.00;100926.68;1621264;87;28355;-61
2023/12/15 02:09:07;;;;;;;16.93;10.15;;;;;;;-0.22;100.00;100927.73;1627726;87;25696;-61
2023/12/15 02:11:34;;;;;;;17.48;9.98;;;;;;;-0.24;100.00;100931.94;1622652;87;25870;-62
2023/12/15 02:14:00;;;;;;;20.35;10.28;;;;;;;-0.25;100.00;100936.14;1618433;87;25940;-62
2023/12/15 02:16:29;;;;;;;17.25;9.78;;;;;;;-0.26;100.00;100943.29;1617416;87;25787;-61
2023/12/15 02:18:57;;;;;;;19.70;10.60;;;;;;;-0.27;100.00;100945.67;1617175;87;27702;-61
2023/12/15 02:21:24;;;;;;;22.30;10.08;;;;;;;-0.29;100.00;100949.07;1616349;87;26157;-60
2023/12/15 02:23:51;;;;;;;20.62;10.75;;;;;;;-0.28;100.00;100950.68;1613292;87;26026;-62
2023/12/15 02:26:19;;;;;;;17.42;10.68;;;;;;;-0.28;100.00;100949.35;1614783;87;26113;-62
2023/12/15 02:28:46;;;;;;;18.67;10.70;;;;;;;-0.26;100.00;100950.46;1623904;87;25875;-61
2023/12/15 02:31:16;;;;;;;19.80;10.77;;;;;;;-0.28;100.00;100957.33;1613613;87;28340;-62
2023/12/15 02:33:42;;;;;;;19.07;10.95;;;;;;;-0.28;100.00;100954.67;1617062;87;25439;-61
2023/12/15 02:36:09;;;;;;;19.70;10.93;;;;;;;-0.26;100.00;100958.44;1617756;87;25915;-62
2023/12/15 02:38:36;;;;;;;18.95;10.70;;;;;;;-0.28;100.00;100957.33;1617227;87;25911;-62
2023/12/15 02:41:02;;;;;;;19.30;11.10;;;;;;;-0.28;100.00;100959.98;1620696;87;25469;-62
2023/12/15 02:43:29;;;;;;;21.33;11.22;;;;;;;-0.27;100.00;100960.30;1621343;87;28041;-62
2023/12/15 02:45:55;;;;;;;20.40;11.78;;;;;;;-0.27;100.00;100964.80;1620898;87;25855;-62
2023/12/15 02:48:24;;;;;;;21.75;11.68;;;;;;;-0.27;100.00;100960.30;1612563;87;25822;-62
2023/12/15 02:50:53;;;;;;;23.33;11.80;;;;;;;-0.26;100.00;100958.44;1628723;87;25648;-62
2023/12/15 02:53:21;;;;;;;21.73;12.10;;;;;;;-0.24;100.00;100957.20;1632677;87;25846;-62
2023/12/15 02:55:50;;;;;;;21.17;11.80;;;;;;;-0.23;100.00;100954.81;1630040;87;28064;-62
2023/12/15 02:58:24;;;;;;;22.48;11.85;;;;;;;-0.20;100.00;100964.22;1586813;87;25959;-63
2023/12/15 03:00:53;;;;;;;18.55;11.30;;;;;;;-0.21;100.00;100962.58;1617581;87;25875;-63
2023/12/15 03:03:21;;;;;;;20.80;11.63;;;;;;;-0.21;100.00;100964.71;1616280;87;25543;-63
2023/12/15 03:05:49;;;;;;;21.83;11.97;;;;;;;-0.20;100.00;100970.34;1616826;87;25483;-63
2023/12/15 03:08:18;;;;;;;21.93;12.45;;;;;;;-0.20;100.00;100973.52;1612976;87;27705;-62
2023/12/15 03:10:46;;;;;;;18.40;11.57;;;;;;;-0.20;100.00;100976.18;1630599;87;26062;-62
2023/12/15 03:13:13;;;;;;;25.90;13.88;;;;;;;-0.20;100.00;100974.33;1621901;87;25514;-63
2023/12/15 03:15:43;;;;;;;21.70;12.00;;;;;;;-0.20;100.00;100987.62;1626564;85;26645;-62
2023/12/15 03:18:12;;;;;;;24.63;13.70;;;;;;;-0.22;100.00;101010.16;1629088;87;25825;-62
2023/12/15 03:20:39;;;;;;;25.60;12.70;;;;;;;-0.22;100.00;101016.81;1615129;87;27367;-63
2023/12/15 03:23:05;;;;;;;23.20;12.33;;;;;;;-0.22;100.00;101030.11;1614508;87;25904;-63
2023/12/15 03:25:33;;;;;;;22.82;12.80;;;;;;;-0.23;100.00;101023.15;1619256;87;25562;-63
2023/12/15 03:28:02;;;;;;;21.42;12.07;;;;;;;-0.24;100.00;101037.46;1613814;87;25941;-63
2023/12/15 03:30:29;;;;;;;22.95;12.28;;;;;;;-0.26;100.00;101027.05;1614169;86;32658;-64
2023/12/15 03:32:57;;;;;;;20.37;11.22;;;;;;;-0.28;100.00;101045.06;1595778;88;28008;-63
2023/12/15 03:35:26;;;;;;;20.80;11.83;;;;;;;-0.29;100.00;101041.30;1618531;87;25664;-64
2023/12/15 03:37:55;;;;;;;21.25;11.38;;;;;;;-0.30;100.00;101052.45;1629990;87;26475;-64
2023/12/15 03:40:24;;;;;;;23.10;11.40;;;;;;;-0.32;100.00;101051.86;1620714;87;26237;-63
2023/12/15 03:42:52;;;;;;;22.13;11.73;;;;;;;-0.33;100.00;101053.41;1624092;87;25587;-63
2023/12/15 03:45:19;;;;;;;21.48;11.75;;;;;;;-0.33;100.00;101063.52;1603252;87;28357;-62
2023/12/15 03:47:48;;;;;;;23.60;11.78;;;;;;;-0.33;100.00;101068.83;1600635;87;26156;-63
2023/12/15 03:50:17;;;;;;;20.35;11.43;;;;;;;-0.35;100.00;101071.42;1597800;88;25529;-63
2023/12/15 03:52:45;;;;;;;23.02;11.97;;;;;;;-0.35;100.00;101067.44;1626805;87;25843;-63
2023/12/15 03:55:14;;;;;;;18.43;10.40;;;;;;;-0.35;100.00;101071.42;1605154;87;25797;-63
2023/12/15 03:57:40;;;;;;;20.80;11.38;;;;;;;-0.36;100.00;101068.45;1606677;86;27925;-64
2023/12/15 04:00:09;;;;;;;19.52;10.45;;;;;;;-0.36;100.00;101074.58;1610735;87;25847;-63
2023/12/15 04:02:36;;;;;;;;;;;;;;;-0.35;100.00;101078.88;1630791;87;25438;-63
2023/12/15 04:05:07;;;;;;;18.80;10.32;;;;;;;-0.34;100.00;101086.33;1615843;87;26628;-66
2023/12/15 04:07:35;;;;;;;;;;;;;;;-0.35;100.00;101088.18;1610645;85;25994;-63
2023/12/15 04:10:01;;;;;;;20.37;10.88;;;;;;;-0.36;100.00;101091.86;1632529;85;27279;-63
2023/12/15 04:12:30;;;;;;;18.77;10.20;;;;;;;-0.36;100.00;101097.70;1633194;87;25486;-63
2023/12/15 04:14:59;;;;;;;18.67;9.95;;;;;;;-0.38;100.00;101097.39;1625940;87;25788;-62
2023/12/15 04:17:25;;;;;;;17.27;10.43;;;;;;;-0.39;100.00;101099.77;1612826;86;25648;-62
2023/12/15 04:19:54;;;;;;;19.52;11.03;;;;;;;-0.39;100.00;101090.98;1604813;87;25561;-62
2023/12/15 04:22:22;;;;;;;18.43;9.87;;;;;;;-0.40;100.00;101092.81;1638961;87;28099;-63
2023/12/15 04:24:51;;;;;;;16.87;10.20;;;;;;;-0.39;100.00;101101.63;1622935;86;25858;-62
2023/12/15 04:27:18;;;;;;;18.60;10.63;;;;;;;-0.38;100.00;101105.89;1631167;87;25630;-62
2023/12/15 04:29:47;;;;;;;16.55;9.45;;;;;;;-0.36;100.00;101103.02;1614202;87;25911;-62
2023/12/15 04:32:15;;;;;;;16.37;10.10;;;;;;;-0.35;100.00;101097.48;1622169;87;25505;-62
2023/12/15 04:34:42;;;;;;;19.20;10.50;;;;;;;-0.33;100.00;101098.60;1628557;87;28437;-63
2023/12/15 04:37:11;;;;;;;20.92;11.65;;;;;;;-0.33;100.00;101095.95;1624071;87;25858;-63
2023/12/15 04:39:38;;;;;;;18.12;9.75;;;;;;;-0.32;100.00;101090.91;1604551;87;25632;-63
2023/12/15 04:42:08;;;;;;;18.73;11.20;;;;;;;-0.32;100.00;101105.53;1620765;87;25624;-63
2023/12/15 04:44:36;;;;;;;21.83;12.40;;;;;;;-0.32;100.00;101118.82;1634541;87;25947;-63
2023/12/15 04:47:05;;;;;;;18.42;10.98;;;;;;;-0.33;100.00;101123.86;1615806;87;28233;-63
2023/12/15 04:49:33;;;;;;;19.48;10.78;;;;;;;-0.34;100.00;101135.02;1624909;85;25667;-63
2023/12/15 04:52:02;;;;;;;22.70;11.68;;;;;;;-0.34;100.00;101132.85;1605210;87;25921;-63
2023/12/15 04:54:29;;;;;;;20.35;10.95;;;;;;;-0.34;100.00;101141.66;1627746;87;25618;-62
2023/12/15 04:56:57;;;;;;;18.25;10.70;;;;;;;-0.33;100.00;101151.25;1597293;87;25529;-62
2023/12/15 04:59:24;;;;;;;19.30;10.95;;;;;;;-0.33;100.00;101151.25;1618844;87;28121;-62
2023/12/15 05:01:54;;;;;;;17.42;10.30;;;;;;;-0.32;100.00;101154.71;1623297;87;25694;-62
2023/12/15 05:04:20;;;;;;;22.42;11.20;;;;;;;-0.31;100.00;101163.00;1609786;87;25457;-62
2023/12/15 05:06:49;;;;;;;19.80;10.85;;;;;;;-0.32;100.00;101160.87;1621951;87;26625;-63
2023/12/15 05:09:19;;;;;;;17.25;9.93;;;;;;;-0.31;100.00;101170.98;1627057;87;25461;-63
2023/12/15 05:11:46;;;;;;;18.17;10.08;;;;;;;-0.31;100.00;101157.69;1615362;87;27332;-63
2023/12/15 05:14:14;;;;;;;18.45;10.38;;;;;;;-0.32;100.00;101158.20;1616168;87;25864;-63
2023/12/15 05:16:42;;;;;;;20.27;10.60;;;;;;;-0.31;100.00;101170.45;1630021;87;25692;-63
2023/12/15 05:19:11;;;;;;;19.48;10.88;;;;;;;-0.32;100.00;101170.17;1631095;86;26334;-63
2023/12/15 05:21:37;;;;;;;17.00;10.10;;;;;;;-0.32;100.00;101168.84;1607781;87;25890;-63
2023/12/15 05:24:06;;;;;;;22.07;11.63;;;;;;;-0.31;100.00;101180.28;1642859;86;27692;-63
2023/12/15 05:26:35;;;;;;;20.88;11.33;;;;;;;-0.31;100.00;101184.27;1644025;86;26171;-64
2023/12/15 05:29:04;;;;;;;18.15;10.72;;;;;;;-0.31;100.00;101191.72;1638262;86;34959;-63
2023/12/15 05:31:32;;;;;;;19.02;10.35;;;;;;;-0.30;100.00;101187.24;1634417;86;25643;-63
2023/12/15 05:34:01;;;;;;;20.75;11.12;;;;;;;-0.31;100.00;101181.09;1636362;86;25414;-63
2023/12/15 05:36:29;;;;;;;17.75;10.70;;;;;;;-0.33;100.00;101180.49;1640812;86;28050;-64
2023/12/15 05:38:59;;;;;;;21.00;10.70;;;;;;;-0.34;100.00;101190.84;1622152;87;25663;-64
2023/12/15 05:41:27;;;;;;;20.82;11.18;;;;;;;-0.35;100.00;101177.23;1595492;87;35034;-63
2023/12/15 05:43:56;;;;;;;19.87;10.43;;;;;;;-0.36;100.00;101187.56;1598395;88;26289;-64
2023/12/15 05:46:22;;;;;;;19.03;11.07;;;;;;;-0.36;100.00;101187.56;1638797;87;25666;-64
2023/12/15 05:48:53;;;;;;;18.17;10.75;;;;;;;-0.36;100.00;101192.08;1605583;87;28389;-64
2023/12/15 05:51:21;;;;;;;19.25;11.30;;;;;;;-0.33;100.00;101194.31;1628428;87;25970;-63
2023/12/15 05:53:50;;;;;;;20.20;12.18;;;;;;;-0.35;100.00;101204.35;1599942;87;25546;-63
2023/12/15 05:56:19;;;;;;;22.33;13.17;;;;;;;-0.32;100.00;101205.23;1609946;87;26686;-64
2023/12/15 05:58:45;;;;;;;22.13;12.30;;;;;;;-0.33;100.00;101203.09;1625933;87;25888;-64
2023/12/15 06:01:16;;;;;;;20.17;12.60;;;;;;;-0.31;100.00;101210.86;1598675;87;28074;-62
2023/12/15 06:03:44;;;;;;;22.98;12.85;;;;;;;-0.32;100.00;101204.73;1616006;87;25838;-64
2023/12/15 06:06:14;;;;;;;22.22;13.38;;;;;;;-0.33;100.00;101211.59;1599506;87;25514;-63
2023/12/15 06:08:40;;;;;;;24.43;13.40;;;;;;;-0.31;100.00;101210.86;1632376;87;26102;-63
2023/12/15 06:11:10;;;;;;;20.30;13.08;;;;;;;-0.33;100.00;101219.56;1614879;87;25898;-63
2023/12/15 06:13:39;;;;;;;24.90;14.20;;;;;;;-0.34;100.00;101218.77;1613794;87;28073;-63
2023/12/15 06:16:27;;;;;;;27.00;15.30;;;;;;;-0.34;100.00;101221.91;1641624;85;25856;-64
2023/12/15 06:18:55;;;;;;;28.87;17.40;;;;;;;-0.36;100.00;101219.98;1660671;85;25474;-64
2023/12/15 06:21:27;;;;;;;25.15;15.15;;;;;;;-0.38;100.00;101222.86;1672454;84;26656;-63
2023/12/15 06:23:56;;;;;;;25.30;14.93;;;;;;;-0.39;100.00;101222.58;1638436;84;25428;-64
2023/12/15 06:26:26;;;;;;;25.90;15.90;;;;;;;-0.40;100.00;101232.38;1672582;83;27476;-64
2023/12/15 06:28:54;;;;;;;24.75;14.35;;;;;;;-0.40;100.00;101232.38;1671834;83;26102;-63
2023/12/15 06:31:25;;;;;;;23.50;14.18;;;;;;;-0.42;100.00;101234.95;1674781;84;25554;-65
2023/12/15 06:33:53;;;;;;;23.83;14.43;;;;;;;-0.42;100.00;101242.93;1659475;84;25843;-63
2023/12/15 06:36:22;;;;;;;28.35;14.87;;;;;;;-0.41;100.00;101245.88;1647090;85;25835;-64
2023/12/15 06:38:50;;;;;;;26.15;13.98;;;;;;;-0.43;100.00;101250.07;1682747;84;27706;-63
2023/12/15 06:41:19;;;;;;;27.55;15.35;;;;;;;-0.42;100.00;101250.91;1677115;84;26060;-63
2023/12/15 06:43:48;;;;;;;25.50;14.38;;;;;;;-0.42;100.00;101250.38;1679083;84;25834;-64
2023/12/15 06:46:16;;;;;;;24.82;14.45;;;;;;;-0.41;100.00;101260.49;1681213;84;25794;-64
2023/12/15 06:48:45;;;;;;;20.67;13.50;;;;;;;-0.40;100.00;101264.80;1675434;83;25873;-65
2023/12/15 06:51:14;;;;;;;25.32;13.65;;;;;;;-0.41;100.00;101269.30;1680249;84;28051;-64
2023/12/15 06:53:43;;;;;;;23.77;13.60;;;;;;;-0.43;100.00;101263.88;1648641;85;25873;-63
2023/12/15 06:56:11;;;;;;;26.00;15.15;;;;;;;-0.43;100.00;101263.36;1668560;84;35082;-65
2023/12/15 06:58:41;;;;;;;23.15;13.35;;;;;;;-0.43;100.00;101272.66;1678019;84;25618;-64
2023/12/15 07:01:09;;;;;;;25.27;13.53;;;;;;;-0.43;100.00;101273.99;1681336;84;25870;-65
2023/12/15 07:03:38;;;;;;;21.63;13.67;;;;;;;-0.41;100.00;101275.95;1679533;84;27322;-64
2023/12/15 07:06:07;;;;;;;17.23;10.13;;;;;;;-0.42;100.00;101271.65;1681033;84;25500;-64
2023/12/15 07:08:37;;;;;;;25.05;14.43;;;;;;;-0.43;100.00;101271.34;1673638;84;25865;-64
2023/12/15 07:11:06;;;;;;;22.07;13.90;;;;;;;-0.42;100.00;101279.62;1640260;86;25939;-64
2023/12/15 07:13:35;;;;;;;26.02;14.40;;;;;;;-0.42;100.00;101276.97;1663162;85;33313;-64
2023/12/15 07:16:04;;;;;;;26.37;13.80;;;;;;;-0.40;100.00;101286.06;1675212;84;28051;-62
2023/12/15 07:18:32;;;;;;;24.35;13.83;;;;;;;-0.39;100.00;101283.72;1672125;83;25481;-65
2023/12/15 07:20:59;;;;;;;26.30;13.75;;;;;;;-0.39;100.00;101284.52;1671648;82;25877;-66
2023/12/15 07:23:29;;;;;;;24.72;13.65;;;;;;;-0.38;100.00;101286.14;1663496;84;26659;-66
2023/12/15 07:25:55;;;;;;;32.38;15.68;;;;;;;-0.37;100.00;101293.63;1663570;84;25735;-65
2023/12/15 07:28:26;;;;;;;26.57;14.87;;;;;;;-0.40;100.00;101288.20;1688029;83;28556;-63
2023/12/15 07:30:54;;;;;;;22.80;13.93;;;;;;;-0.38;100.00;101292.78;1678549;83;26018;-63
2023/12/15 07:33:21;;;;;;;26.33;13.67;;;;;;;-0.35;100.00;101300.06;1670221;83;25457;-63
2023/12/15 07:35:48;;;;;;;24.30;14.43;;;;;;;-0.35;100.00;101301.39;1678464;84;25978;-64
2023/12/15 07:38:15;;;;;;;23.75;13.75;;;;;;;-0.34;100.00;101306.50;1667407;83;25936;-65
2023/12/15 07:40:42;;;;;;;25.50;14.83;;;;;;;-0.33;100.00;101309.44;1683542;84;27334;-65
2023/12/15 07:43:10;;;;;;;25.05;13.98;;;;;;;-0.32;100.00;101308.92;1666428;84;25402;-64
2023/12/15 07:45:37;;;;;;;27.57;15.33;;;;;;;-0.29;100.00;101312.48;1678192;84;25902;-66
2023/12/15 07:48:06;;;;;;;25.82;15.43;;;;;;;-0.27;100.00;101307.80;1674128;84;26645;-66
2023/12/15 07:50:34;;;;;;;30.72;15.48;;;;;;;-0.26;100.00;101305.42;1670756;84;25491;-66
2023/12/15 07:53:03;;;;;;;26.68;14.78;;;;;;;-0.25;100.00;101309.20;1645846;85;28351;-66
2023/12/15 07:55:31;;;;;;;26.82;14.03;;;;;;;-0.23;100.00;101320.44;1667606;84;25847;-66
2023/12/15 07:58:00;;;;;;;25.07;14.37;;;;;;;-0.21;100.00;101325.02;1663380;85;25724;-66
2023/12/15 08:00:28;;;;;;;19.60;11.03;;;;;;;-0.15;100.00;101321.21;1681523;84;25956;-66
2023/12/15 08:02:57;;;;;;;24.97;15.57;;;;;;;-0.09;100.00;101325.17;1673091;84;25454;-66
2023/12/15 08:05:26;;;;;;;25.80;14.90;;;;;;;-0.03;100.00;101320.87;1666330;84;27413;-66
2023/12/15 08:07:55;;;;;;;26.73;14.15;;;;;;;0.04;100.00;101327.48;1678089;84;25829;-66
2023/12/15 08:10:26;;;;;;;27.20;15.43;;;;;;;0.08;100.00;101332.67;1676349;84;25461;-66
2023/12/15 08:12:53;;;;;;;23.80;14.25;;;;;;;0.12;100.00;101329.87;1670585;84;25917;-66
2023/12/15 08:15:22;;;;;;;25.40;14.63;;;;;;;0.17;100.00;101330.05;1670663;84;26649;-66
2023/12/15 08:17:50;;;;;;;25.07;13.80;;;;;;;0.21;100.00;101337.11;1650454;84;27343;-66
2023/12/15 08:20:18;;;;;;;32.70;14.38;;;;;;;0.25;100.00;101340.96;1666465;84;25822;-65
2023/12/15 08:22:46;;;;;;;26.55;13.78;;;;;;;0.26;100.00;101339.94;1643547;85;25884;-65
2023/12/15 08:25:14;;;;;;;26.70;14.80;;;;;;;0.27;100.00;101338.37;1674739;84;26893;-65
2023/12/15 08:27:42;;;;;;;25.50;14.78;;;;;;;0.26;100.00;101340.75;1677200;84;25907;-65
2023/12/15 08:30:11;;;;;;;24.43;14.40;;;;;;;0.27;100.00;101351.67;1687577;84;27381;-66
2023/12/15 08:32:38;;;;;;;28.57;15.38;;;;;;;0.30;100.00;101358.44;1679081;84;25534;-67
2023/12/15 08:35:07;;;;;;;27.50;14.70;;;;;;;0.33;100.00;101363.33;1671466;84;25857;-66
2023/12/15 08:37:36;;;;;;;;;;;;;;;0.33;100.00;101363.33;1666146;84;25965;-66
2023/12/15 08:40:06;;;;;;;26.90;15.83;;;;;;;0.35;100.00;101367.39;1679915;84;25498;-65
2023/12/15 08:42:32;;;;;;;29.60;16.60;;;;;;;0.35;100.00;101375.38;1683303;84;28377;-67
2023/12/15 08:44:59;;;;;;;31.90;17.73;;;;;;;0.33;100.00;101372.13;1683582;83;26228;-66
2023/12/15 08:47:26;;;;;;;35.68;18.12;;;;;;;0.32;100.00;101380.32;1677376;84;25477;-66
2023/12/15 08:49:53;;;;;;;38.33;20.32;;;;;;;0.32;100.00;101385.15;1672562;84;25982;-65
2023/12/15 08:52:21;;;;;;;37.35;19.52;;;;;;;0.32;100.00;101382.48;1671714;84;26224;-66
2023/12/15 08:54:49;;;;;;;37.33;20.75;;;;;;;0.32;100.00;101393.14;1672521;84;28060;-66
2023/12/15 08:57:18;;;;;;;36.58;20.15;;;;;;;0.34;100.00;101390.23;1678821;84;25846;-67
2023/12/15 08:59:44;;;;;;;34.63;19.55;;;;;;;0.33;100.00;101393.42;1677601;84;25857;-66
2023/12/15 09:02:13;;;;;;;38.78;19.90;;;;;;;0.32;100.00;101403.78;1672805;84;25937;-66
2023/12/15 09:04:39;;;;;;;43.08;21.00;;;;;;;0.33;100.00;101397.41;1663807;84;25515;-65
2023/12/15 09:07:09;;;;;;;36.75;20.45;;;;;;;0.33;100.00;101391.28;1676009;84;28047;-65
2023/12/15 09:09:38;;;;;;;38.33;21.27;;;;;;;0.30;100.00;101383.72;1675479;84;25862;-65
2023/12/15 09:12:08;;;;;;;39.10;20.82;;;;;;;0.29;100.00;101372.27;1668047;82;25921;-65
2023/12/15 09:14:34;;;;;;;40.35;20.48;;;;;;;0.31;100.00;101379.52;1678373;84;26368;-65
2023/12/15 09:17:05;;;;;;;36.05;20.45;;;;;;;0.32;100.00;101383.81;1670352;84;25833;-65
2023/12/15 09:19:34;;;;;;;35.58;20.40;;;;;;;0.34;100.00;101399.05;1661121;84;28035;-62
2023/12/15 09:22:01;;;;;;;36.28;21.17;;;;;;;0.39;100.00;101406.37;1689227;84;25840;-63
2023/12/15 09:24:30;;;;;;;38.83;21.55;;;;;;;0.45;100.00;101417.52;1663006;84;25529;-65
2023/12/15 09:26:58;;;;;;;34.50;20.15;;;;;;;0.51;100.00;101425.98;1671682;84;26698;-66
2023/12/15 09:29:24;;;;;;;34.73;19.42;;;;;;;0.58;100.00;101425.11;1671739;84;25931;-66
2023/12/15 09:31:53;;;;;;;32.78;20.17;;;;;;;0.68;100.00;101429.45;1688265;84;27374;-67
2023/12/15 09:34:20;;;;;;;35.08;19.10;;;;;;;0.80;100.00;101429.58;1677849;84;25869;-67
2023/12/15 09:36:49;;;;;;;40.65;19.32;;;;;;;0.93;100.00;101428.95;1674372;84;26139;-67
2023/12/15 09:39:17;;;;;;;38.78;20.02;;;;;;;1.27;100.00;101451.36;1675189;84;25491;-66
2023/12/15 09:41:45;;;;;;;33.50;18.98;;;;;;;1.32;100.00;101431.52;1643184;84;25908;-66
2023/12/15 09:44:13;;;;;;;35.60;19.77;;;;;;;1.46;100.00;101430.37;1676891;84;28110;-67
2023/12/15 09:46:44;;;;;;;37.70;20.88;;;;;;;1.59;100.00;101424.61;1672899;84;25893;-67
2023/12/15 09:49:18;;;;;;;34.35;20.10;;;;;;;1.67;100.00;101441.66;1669128;84;25874;-67
2023/12/15 09:51:50;;;;;;;36.88;21.55;;;;;;;1.76;100.00;101441.65;1677484;84;26360;-67
2023/12/15 09:54:20;;;;;;;37.25;20.95;;;;;;;1.82;100.00;101442.61;1679947;84;25905;-67
2023/12/15 09:56:48;;;;;;;34.75;20.08;;;;;;;1.89;100.00;101431.86;1658062;84;28356;-67
2023/12/15 09:59:15;;;;;;;28.32;18.60;;;;;;;1.90;100.00;101436.98;1680682;84;25962;-68
2023/12/15 10:01:42;;;;;;;36.88;20.75;;;;;;;1.91;100.00;101427.95;1674008;84;26122;-67
2023/12/15 10:04:10;;;;;;;34.53;21.48;;;;;;;1.92;100.00;101436.77;1674109;84;26375;-69
2023/12/15 10:06:39;;;;;;;37.53;21.23;;;;;;;1.94;100.00;101434.67;1677061;84;25444;-69
2023/12/15 10:09:13;;;;;;;37.78;20.70;;;;;;;1.94;100.00;101434.18;1678241;84;28361;-70
2023/12/15 10:11:44;;;;;;;38.08;21.30;;;;;;;1.91;100.00;101427.95;1680927;84;25536;-69
2023/12/15 10:14:14;;;;;;;36.05;22.35;;;;;;;1.89;100.00;101429.19;1668815;84;25860;-69
2023/12/15 10:16:42;;;;;;;38.85;22.58;;;;;;;1.88;100.00;101438.25;1681534;84;26185;-70
2023/12/15 10:19:11;;;;;;;40.38;23.52;;;;;;;1.92;100.00;101442.91;1667535;84;27179;-68
2023/12/15 10:21:38;;;;;;;44.13;24.13;;;;;;;1.91;100.00;101446.63;1685042;84;27650;-69
2023/12/15 10:24:24;;;;;;;47.38;25.60;;;;;;;1.90;100.00;101450.85;1683797;83;25840;-68
2023/12/15 10:26:52;;;;;;;36.60;22.32;;;;;;;1.84;100.00;101444.56;1674789;84;25881;-69
2023/12/15 10:29:24;;;;;;;40.33;23.07;;;;;;;1.84;100.00;101439.22;1671152;84;25884;-70
2023/12/15 10:31:52;;;;;;;39.03;22.50;;;;;;;1.78;100.00;101436.09;1676685;84;25887;-69
2023/12/15 10:34:26;;;;;;;42.60;22.90;;;;;;;1.72;100.00;101437.81;1672668;84;27355;-72
2023/12/15 10:36:54;;;;;;;37.13;22.15;;;;;;;1.67;100.00;101438.99;1681037;84;26045;-71
2023/12/15 10:39:24;;;;;;;40.40;21.87;;;;;;;1.66;100.00;101442.69;1671807;84;25494;-69
2023/12/15 10:41:51;;;;;;;;;;;;;;;1.67;100.00;101442.99;1672250;83;25912;-70
2023/12/15 10:44:22;;;;;;;40.95;21.90;;;;;;;1.63;100.00;101438.59;1679328;84;25967;-70
2023/12/15 10:46:48;;;;;;;41.25;23.60;;;;;;;1.62;100.00;101455.65;1665629;84;27423;-72
2023/12/15 10:49:18;;;;;;;42.13;22.80;;;;;;;1.64;100.00;101460.23;1665103;84;25856;-69
2023/12/15 10:51:48;;;;;;;42.88;24.18;;;;;;;1.67;100.00;101476.33;1648947;85;26061;-71
2023/12/15 10:54:18;;;;;;;41.55;23.80;;;;;;;1.69;100.00;101480.92;1678185;84;26483;-72
2023/12/15 10:56:47;;;;;;;43.55;23.73;;;;;;;1.66;100.00;101474.16;1688746;84;26053;-72
2023/12/15 10:59:13;;;;;;;50.90;26.23;;;;;;;1.65;100.00;101459.71;1688338;83;28225;-71
2023/12/15 11:01:43;;;;;;;41.55;24.07;;;;;;;1.63;100.00;101456.45;1677563;84;26585;-71
2023/12/15 11:04:24;;;;;;;42.58;23.40;;;;;;;1.61;100.00;101453.20;1668429;84;25906;-72
2023/12/15 11:06:53;;;;;;;39.90;22.85;;;;;;;1.57;100.00;101452.83;1665939;84;25854;-69
2023/12/15 11:09:33;;;;;;;42.62;23.20;;;;;;;1.58;100.00;101463.77;1684616;84;25918;-69
2023/12/15 11:12:37;;;;;;;44.50;25.37;;;;;;;1.60;100.00;101465.73;1669207;83;27416;-68